sensor_id;sensor_type;location;lat;lon;timestamp;P1;durP1;ratioP1;P2;durP2;ratioP2
75768;SDS011;64379;48.888;8.330;2023-01-06T00:00:28;5.60;;;1.30;;
75768;SDS011;64379;48.888;8.330;2023-01-06T00:02:54;2.92;;;1.10;;
75768;SDS011;64379;48.888;8.330;2023-01-06T00:05:19;3.22;;;1.20;;
75768;SDS011;64379;48.888;8.330;2023-01-06T00:07:47;2.85;;;1.33;;
75768;SDS011;64379;48.888;8.330;2023-01-06T00:10:14;3.85;;;1.30;;
75768;SDS011;64379;48.888;8.330;2023-01-06T00:12:39;4.22;;;1.30;;
75768;SDS011;64379;48.888;8.330;2023-01-06T00:15:09;2.92;;;1.30;;
75768;SDS011;64379;48.888;8.330;2023-01-06T00:17:34;4.00;;;1.40;;
75768;SDS011;64379;48.888;8.330;2023-01-06T00:20:00;2.13;;;1.10;;
75768;SDS011;64379;48.888;8.330;2023-01-06T00:22:26;5.18;;;1.10;;
75768;SDS011;64379;48.888;8.330;2023-01-06T00:24:51;2.50;;;0.95;;
75768;SDS011;64379;48.888;8.330;2023-01-06T00:27:17;3.00;;;1.10;;
75768;SDS011;64379;48.888;8.330;2023-01-06T00:29:42;4.80;;;1.42;;
75768;SDS011;64379;48.888;8.330;2023-01-06T00:32:08;3.65;;;1.05;;
75768;SDS011;64379;48.888;8.330;2023-01-06T00:34:34;5.13;;;1.20;;
75768;SDS011;64379;48.888;8.330;2023-01-06T00:36:59;4.13;;;1.30;;
75768;SDS011;64379;48.888;8.330;2023-01-06T00:39:25;2.90;;;1.00;;
75768;SDS011;64379;48.888;8.330;2023-01-06T00:41:50;2.97;;;1.02;;
75768;SDS011;64379;48.888;8.330;2023-01-06T00:44:46;2.22;;;0.93;;
75768;SDS011;64379;48.888;8.330;2023-01-06T00:47:12;2.85;;;1.10;;
75768;SDS011;64379;48.888;8.330;2023-01-06T00:49:38;2.63;;;1.00;;
75768;SDS011;64379;48.888;8.330;2023-01-06T00:52:04;6.38;;;1.10;;
75768;SDS011;64379;48.888;8.330;2023-01-06T00:54:30;2.85;;;1.17;;
75768;SDS011;64379;48.888;8.330;2023-01-06T00:56:55;3.08;;;1.27;;
75768;SDS011;64379;48.888;8.330;2023-01-06T00:59:22;3.78;;;1.48;;
75768;SDS011;64379;48.888;8.330;2023-01-06T01:01:49;4.03;;;1.00;;
75768;SDS011;64379;48.888;8.330;2023-01-06T01:04:17;2.58;;;1.10;;
75768;SDS011;64379;48.888;8.330;2023-01-06T01:06:43;3.47;;;1.10;;
75768;SDS011;64379;48.888;8.330;2023-01-06T01:09:12;3.05;;;1.00;;
75768;SDS011;64379;48.888;8.330;2023-01-06T01:12:04;2.33;;;1.02;;
75768;SDS011;64379;48.888;8.330;2023-01-06T01:14:37;3.03;;;1.10;;
75768;SDS011;64379;48.888;8.330;2023-01-06T01:17:12;2.58;;;0.90;;
75768;SDS011;64379;48.888;8.330;2023-01-06T01:19:46;2.97;;;1.10;;
75768;SDS011;64379;48.888;8.330;2023-01-06T01:22:12;2.92;;;1.00;;
75768;SDS011;64379;48.888;8.330;2023-01-06T01:24:38;4.13;;;1.20;;
75768;SDS011;64379;48.888;8.330;2023-01-06T01:27:04;5.05;;;1.40;;
75768;SDS011;64379;48.888;8.330;2023-01-06T01:29:29;2.13;;;1.10;;
75768;SDS011;64379;48.888;8.330;2023-01-06T01:31:55;2.78;;;1.10;;
75768;SDS011;64379;48.888;8.330;2023-01-06T01:34:21;4.88;;;1.42;;
75768;SDS011;64379;48.888;8.330;2023-01-06T01:36:47;3.33;;;0.95;;
75768;SDS011;64379;48.888;8.330;2023-01-06T01:39:15;3.05;;;1.20;;
75768;SDS011;64379;48.888;8.330;2023-01-06T01:41:43;3.65;;;1.25;;
75768;SDS011;64379;48.888;8.330;2023-01-06T01:47:23;3.72;;;1.23;;
75768;SDS011;64379;48.888;8.330;2023-01-06T01:52:57;4.70;;;1.17;;
75768;SDS011;64379;48.888;8.330;2023-01-06T01:58:16;3.30;;;1.20;;
75768;SDS011;64379;48.888;8.330;2023-01-06T02:00:45;2.85;;;0.82;;
75768;SDS011;64379;48.888;8.330;2023-01-06T02:03:11;2.60;;;1.48;;
75768;SDS011;64379;48.888;8.330;2023-01-06T02:05:40;4.35;;;1.20;;
75768;SDS011;64379;48.888;8.330;2023-01-06T02:08:21;2.15;;;0.90;;
75768;SDS011;64379;48.888;8.330;2023-01-06T02:11:01;4.22;;;1.08;;
75768;SDS011;64379;48.888;8.330;2023-01-06T02:13:28;2.75;;;1.00;;
75768;SDS011;64379;48.888;8.330;2023-01-06T02:16:02;2.38;;;0.93;;
75768;SDS011;64379;48.888;8.330;2023-01-06T02:18:51;3.05;;;1.00;;
75768;SDS011;64379;48.888;8.330;2023-01-06T02:24:06;3.25;;;1.30;;
75768;SDS011;64379;48.888;8.330;2023-01-06T02:32:31;3.63;;;1.20;;
75768;SDS011;64379;48.888;8.330;2023-01-06T02:35:36;2.70;;;1.20;;
75768;SDS011;64379;48.888;8.330;2023-01-06T02:38:28;3.85;;;1.27;;
75768;SDS011;64379;48.888;8.330;2023-01-06T02:44:00;2.38;;;1.20;;
75768;SDS011;64379;48.888;8.330;2023-01-06T02:46:45;3.03;;;1.10;;
75768;SDS011;64379;48.888;8.330;2023-01-06T02:49:34;4.43;;;1.33;;
75768;SDS011;64379;48.888;8.330;2023-01-06T02:55:27;3.70;;;1.60;;
75768;SDS011;64379;48.888;8.330;2023-01-06T02:58:10;4.03;;;1.55;;
75768;SDS011;64379;48.888;8.330;2023-01-06T03:00:54;3.80;;;1.60;;
75768;SDS011;64379;48.888;8.330;2023-01-06T03:03:34;3.30;;;1.45;;
75768;SDS011;64379;48.888;8.330;2023-01-06T03:06:10;5.57;;;2.22;;
75768;SDS011;64379;48.888;8.330;2023-01-06T03:08:39;5.18;;;2.03;;
75768;SDS011;64379;48.888;8.330;2023-01-06T03:11:07;7.10;;;2.40;;
75768;SDS011;64379;48.888;8.330;2023-01-06T03:16:07;3.95;;;1.70;;
75768;SDS011;64379;48.888;8.330;2023-01-06T03:18:33;5.00;;;2.40;;
75768;SDS011;64379;48.888;8.330;2023-01-06T03:21:02;6.88;;;2.08;;
75768;SDS011;64379;48.888;8.330;2023-01-06T03:23:32;4.88;;;2.15;;
75768;SDS011;64379;48.888;8.330;2023-01-06T03:25:59;3.25;;;1.65;;
75768;SDS011;64379;48.888;8.330;2023-01-06T03:28:24;3.78;;;1.65;;
75768;SDS011;64379;48.888;8.330;2023-01-06T03:30:56;6.53;;;2.33;;
75768;SDS011;64379;48.888;8.330;2023-01-06T03:34:01;4.35;;;2.05;;
75768;SDS011;64379;48.888;8.330;2023-01-06T03:40:10;4.40;;;1.95;;
75768;SDS011;64379;48.888;8.330;2023-01-06T03:42:59;6.72;;;1.80;;
75768;SDS011;64379;48.888;8.330;2023-01-06T03:45:54;3.13;;;1.50;;
75768;SDS011;64379;48.888;8.330;2023-01-06T03:54:07;3.10;;;1.58;;
75768;SDS011;64379;48.888;8.330;2023-01-06T03:56:41;4.15;;;1.60;;
75768;SDS011;64379;48.888;8.330;2023-01-06T03:59:16;5.13;;;1.77;;
75768;SDS011;64379;48.888;8.330;2023-01-06T04:01:44;4.25;;;1.83;;
75768;SDS011;64379;48.888;8.330;2023-01-06T04:04:11;5.07;;;1.98;;
75768;SDS011;64379;48.888;8.330;2023-01-06T04:06:37;5.07;;;2.20;;
75768;SDS011;64379;48.888;8.330;2023-01-06T04:09:03;5.07;;;2.35;;
75768;SDS011;64379;48.888;8.330;2023-01-06T04:11:29;4.95;;;2.40;;
75768;SDS011;64379;48.888;8.330;2023-01-06T04:14:13;7.07;;;2.60;;
75768;SDS011;64379;48.888;8.330;2023-01-06T04:16:38;6.38;;;2.67;;
75768;SDS011;64379;48.888;8.330;2023-01-06T04:19:04;4.80;;;2.28;;
75768;SDS011;64379;48.888;8.330;2023-01-06T04:21:30;6.75;;;3.15;;
75768;SDS011;64379;48.888;8.330;2023-01-06T04:23:55;5.45;;;2.38;;
75768;SDS011;64379;48.888;8.330;2023-01-06T04:26:21;5.10;;;2.35;;
75768;SDS011;64379;48.888;8.330;2023-01-06T04:28:46;4.82;;;2.30;;
75768;SDS011;64379;48.888;8.330;2023-01-06T04:31:12;7.53;;;2.35;;
75768;SDS011;64379;48.888;8.330;2023-01-06T04:33:37;4.07;;;2.10;;
75768;SDS011;64379;48.888;8.330;2023-01-06T04:36:03;5.43;;;1.73;;
75768;SDS011;64379;48.888;8.330;2023-01-06T04:38:29;5.18;;;1.92;;
75768;SDS011;64379;48.888;8.330;2023-01-06T04:40:55;5.53;;;1.95;;
75768;SDS011;64379;48.888;8.330;2023-01-06T04:43:20;2.65;;;1.27;;
75768;SDS011;64379;48.888;8.330;2023-01-06T04:45:46;5.65;;;1.95;;
75768;SDS011;64379;48.888;8.330;2023-01-06T04:48:13;3.38;;;1.52;;
75768;SDS011;64379;48.888;8.330;2023-01-06T04:50:38;3.60;;;1.52;;
75768;SDS011;64379;48.888;8.330;2023-01-06T04:53:05;3.05;;;1.67;;
75768;SDS011;64379;48.888;8.330;2023-01-06T04:55:31;4.03;;;1.90;;
75768;SDS011;64379;48.888;8.330;2023-01-06T04:57:57;5.65;;;2.10;;
75768;SDS011;64379;48.888;8.330;2023-01-06T05:00:23;6.00;;;2.10;;
75768;SDS011;64379;48.888;8.330;2023-01-06T05:02:48;4.72;;;2.05;;
75768;SDS011;64379;48.888;8.330;2023-01-06T05:05:14;4.35;;;1.85;;
75768;SDS011;64379;48.888;8.330;2023-01-06T05:07:40;4.32;;;2.20;;
75768;SDS011;64379;48.888;8.330;2023-01-06T05:10:07;3.85;;;2.03;;
75768;SDS011;64379;48.888;8.330;2023-01-06T05:12:33;5.47;;;2.33;;
75768;SDS011;64379;48.888;8.330;2023-01-06T05:14:59;4.72;;;2.28;;
75768;SDS011;64379;48.888;8.330;2023-01-06T05:17:25;6.00;;;2.78;;
75768;SDS011;64379;48.888;8.330;2023-01-06T05:19:50;4.97;;;2.70;;
75768;SDS011;64379;48.888;8.330;2023-01-06T05:22:16;5.13;;;2.17;;
75768;SDS011;64379;48.888;8.330;2023-01-06T05:24:42;5.38;;;2.67;;
75768;SDS011;64379;48.888;8.330;2023-01-06T05:27:07;6.95;;;3.05;;
75768;SDS011;64379;48.888;8.330;2023-01-06T05:29:33;7.07;;;2.28;;
75768;SDS011;64379;48.888;8.330;2023-01-06T05:31:59;5.72;;;2.80;;
75768;SDS011;64379;48.888;8.330;2023-01-06T05:34:25;5.65;;;2.55;;
75768;SDS011;64379;48.888;8.330;2023-01-06T05:36:51;6.03;;;3.28;;
75768;SDS011;64379;48.888;8.330;2023-01-06T05:39:16;6.97;;;2.80;;
75768;SDS011;64379;48.888;8.330;2023-01-06T05:41:42;5.13;;;2.60;;
75768;SDS011;64379;48.888;8.330;2023-01-06T05:44:08;6.80;;;2.85;;
75768;SDS011;64379;48.888;8.330;2023-01-06T05:46:33;6.75;;;3.05;;
75768;SDS011;64379;48.888;8.330;2023-01-06T05:48:59;7.55;;;2.40;;
75768;SDS011;64379;48.888;8.330;2023-01-06T05:51:25;6.32;;;2.70;;
75768;SDS011;64379;48.888;8.330;2023-01-06T05:53:51;5.38;;;2.45;;
75768;SDS011;64379;48.888;8.330;2023-01-06T05:56:17;10.07;;;2.88;;
75768;SDS011;64379;48.888;8.330;2023-01-06T05:58:46;5.65;;;2.03;;
75768;SDS011;64379;48.888;8.330;2023-01-06T06:01:15;4.57;;;2.20;;
75768;SDS011;64379;48.888;8.330;2023-01-06T06:06:07;6.13;;;2.10;;
75768;SDS011;64379;48.888;8.330;2023-01-06T06:08:33;7.03;;;2.75;;
75768;SDS011;64379;48.888;8.330;2023-01-06T06:11:06;4.85;;;2.15;;
75768;SDS011;64379;48.888;8.330;2023-01-06T06:16:03;6.85;;;2.60;;
75768;SDS011;64379;48.888;8.330;2023-01-06T06:18:29;7.13;;;2.63;;
75768;SDS011;64379;48.888;8.330;2023-01-06T06:20:59;9.60;;;2.30;;
75768;SDS011;64379;48.888;8.330;2023-01-06T06:23:26;3.60;;;1.88;;
75768;SDS011;64379;48.888;8.330;2023-01-06T06:25:51;5.50;;;2.53;;
75768;SDS011;64379;48.888;8.330;2023-01-06T06:28:17;6.07;;;2.78;;
75768;SDS011;64379;48.888;8.330;2023-01-06T06:30:42;5.55;;;2.05;;
75768;SDS011;64379;48.888;8.330;2023-01-06T06:33:08;6.18;;;2.38;;
75768;SDS011;64379;48.888;8.330;2023-01-06T06:35:33;5.03;;;2.63;;
75768;SDS011;64379;48.888;8.330;2023-01-06T06:37:59;5.07;;;2.38;;
75768;SDS011;64379;48.888;8.330;2023-01-06T06:40:24;5.15;;;2.25;;
75768;SDS011;64379;48.888;8.330;2023-01-06T06:42:51;5.88;;;3.00;;
75768;SDS011;64379;48.888;8.330;2023-01-06T06:45:17;9.35;;;2.90;;
75768;SDS011;64379;48.888;8.330;2023-01-06T06:47:43;5.55;;;3.30;;
75768;SDS011;64379;48.888;8.330;2023-01-06T06:50:11;6.10;;;3.03;;
75768;SDS011;64379;48.888;8.330;2023-01-06T06:55:03;6.35;;;3.13;;
75768;SDS011;64379;48.888;8.330;2023-01-06T06:57:29;6.38;;;3.42;;
75768;SDS011;64379;48.888;8.330;2023-01-06T06:59:55;7.40;;;2.85;;
75768;SDS011;64379;48.888;8.330;2023-01-06T07:02:20;6.88;;;2.80;;
75768;SDS011;64379;48.888;8.330;2023-01-06T07:04:46;6.20;;;2.95;;
75768;SDS011;64379;48.888;8.330;2023-01-06T07:07:11;7.15;;;3.50;;
75768;SDS011;64379;48.888;8.330;2023-01-06T07:09:37;7.00;;;3.42;;
75768;SDS011;64379;48.888;8.330;2023-01-06T07:12:03;6.13;;;3.10;;
75768;SDS011;64379;48.888;8.330;2023-01-06T07:14:29;6.35;;;3.45;;
75768;SDS011;64379;48.888;8.330;2023-01-06T07:16:58;7.25;;;3.45;;
75768;SDS011;64379;48.888;8.330;2023-01-06T07:19:25;5.90;;;3.35;;
75768;SDS011;64379;48.888;8.330;2023-01-06T07:21:50;7.88;;;3.15;;
75768;SDS011;64379;48.888;8.330;2023-01-06T07:24:16;6.20;;;3.10;;
75768;SDS011;64379;48.888;8.330;2023-01-06T07:26:41;4.97;;;2.55;;
75768;SDS011;64379;48.888;8.330;2023-01-06T07:29:07;6.68;;;3.20;;
75768;SDS011;64379;48.888;8.330;2023-01-06T07:31:32;6.60;;;3.08;;
75768;SDS011;64379;48.888;8.330;2023-01-06T07:33:58;6.93;;;3.03;;
75768;SDS011;64379;48.888;8.330;2023-01-06T07:36:24;6.97;;;2.95;;
75768;SDS011;64379;48.888;8.330;2023-01-06T07:38:49;5.60;;;2.90;;
75768;SDS011;64379;48.888;8.330;2023-01-06T07:41:15;4.97;;;2.33;;
75768;SDS011;64379;48.888;8.330;2023-01-06T07:43:40;5.35;;;2.55;;
75768;SDS011;64379;48.888;8.330;2023-01-06T07:46:06;4.28;;;2.20;;
75768;SDS011;64379;48.888;8.330;2023-01-06T07:48:31;5.85;;;3.05;;
75768;SDS011;64379;48.888;8.330;2023-01-06T07:50:57;5.35;;;2.58;;
75768;SDS011;64379;48.888;8.330;2023-01-06T07:53:23;5.60;;;2.75;;
75768;SDS011;64379;48.888;8.330;2023-01-06T07:55:49;5.22;;;2.70;;
75768;SDS011;64379;48.888;8.330;2023-01-06T07:58:15;5.47;;;2.47;;
75768;SDS011;64379;48.888;8.330;2023-01-06T08:00:42;4.32;;;2.00;;
75768;SDS011;64379;48.888;8.330;2023-01-06T08:03:08;5.00;;;2.67;;
75768;SDS011;64379;48.888;8.330;2023-01-06T08:05:35;6.43;;;2.20;;
75768;SDS011;64379;48.888;8.330;2023-01-06T08:08:02;7.32;;;1.73;;
75768;SDS011;64379;48.888;8.330;2023-01-06T08:10:28;4.97;;;2.47;;
75768;SDS011;64379;48.888;8.330;2023-01-06T08:12:53;4.80;;;1.90;;
75768;SDS011;64379;48.888;8.330;2023-01-06T08:15:19;4.65;;;2.25;;
75768;SDS011;64379;48.888;8.330;2023-01-06T08:17:45;5.43;;;2.35;;
75768;SDS011;64379;48.888;8.330;2023-01-06T08:20:10;3.22;;;1.70;;
75768;SDS011;64379;48.888;8.330;2023-01-06T08:22:36;4.25;;;2.10;;
75768;SDS011;64379;48.888;8.330;2023-01-06T08:25:02;5.55;;;1.73;;
75768;SDS011;64379;48.888;8.330;2023-01-06T08:27:27;3.92;;;1.52;;
75768;SDS011;64379;48.888;8.330;2023-01-06T08:29:53;3.78;;;1.48;;
75768;SDS011;64379;48.888;8.330;2023-01-06T08:32:19;5.32;;;1.65;;
75768;SDS011;64379;48.888;8.330;2023-01-06T08:34:45;3.55;;;1.55;;
75768;SDS011;64379;48.888;8.330;2023-01-06T08:37:11;5.03;;;1.45;;
75768;SDS011;64379;48.888;8.330;2023-01-06T08:39:37;2.92;;;1.08;;
75768;SDS011;64379;48.888;8.330;2023-01-06T08:42:03;3.45;;;1.45;;
75768;SDS011;64379;48.888;8.330;2023-01-06T08:44:28;3.47;;;1.58;;
75768;SDS011;64379;48.888;8.330;2023-01-06T08:46:54;4.47;;;1.50;;
75768;SDS011;64379;48.888;8.330;2023-01-06T08:49:19;3.78;;;1.40;;
75768;SDS011;64379;48.888;8.330;2023-01-06T08:51:45;3.42;;;1.48;;
75768;SDS011;64379;48.888;8.330;2023-01-06T08:54:15;4.93;;;1.40;;
75768;SDS011;64379;48.888;8.330;2023-01-06T08:56:41;3.20;;;1.10;;
75768;SDS011;64379;48.888;8.330;2023-01-06T08:59:09;4.32;;;1.40;;
75768;SDS011;64379;48.888;8.330;2023-01-06T09:01:37;1.77;;;1.02;;
75768;SDS011;64379;48.888;8.330;2023-01-06T09:04:04;3.53;;;1.38;;
75768;SDS011;64379;48.888;8.330;2023-01-06T09:06:31;1.73;;;1.05;;
75768;SDS011;64379;48.888;8.330;2023-01-06T09:08:57;2.00;;;1.10;;
75768;SDS011;64379;48.888;8.330;2023-01-06T09:11:23;4.22;;;1.13;;
75768;SDS011;64379;48.888;8.330;2023-01-06T09:13:49;2.50;;;1.15;;
75768;SDS011;64379;48.888;8.330;2023-01-06T09:16:15;2.42;;;1.27;;
75768;SDS011;64379;48.888;8.330;2023-01-06T09:18:41;3.17;;;1.30;;
75768;SDS011;64379;48.888;8.330;2023-01-06T09:21:13;3.47;;;1.17;;
75768;SDS011;64379;48.888;8.330;2023-01-06T09:23:40;2.65;;;1.20;;
75768;SDS011;64379;48.888;8.330;2023-01-06T09:26:05;2.55;;;1.20;;
75768;SDS011;64379;48.888;8.330;2023-01-06T09:28:31;2.42;;;1.13;;
75768;SDS011;64379;48.888;8.330;2023-01-06T09:30:57;2.97;;;1.23;;
75768;SDS011;64379;48.888;8.330;2023-01-06T09:33:23;2.67;;;1.30;;
75768;SDS011;64379;48.888;8.330;2023-01-06T09:35:48;1.77;;;0.95;;
75768;SDS011;64379;48.888;8.330;2023-01-06T09:38:14;1.95;;;1.00;;
75768;SDS011;64379;48.888;8.330;2023-01-06T09:40:44;2.58;;;1.20;;
75768;SDS011;64379;48.888;8.330;2023-01-06T09:43:16;3.22;;;1.20;;
75768;SDS011;64379;48.888;8.330;2023-01-06T09:45:54;2.50;;;1.15;;
75768;SDS011;64379;48.888;8.330;2023-01-06T09:48:27;2.22;;;1.10;;
75768;SDS011;64379;48.888;8.330;2023-01-06T09:50:59;2.83;;;1.38;;
75768;SDS011;64379;48.888;8.330;2023-01-06T09:53:37;1.95;;;1.10;;
75768;SDS011;64379;48.888;8.330;2023-01-06T09:56:08;1.40;;;0.80;;
75768;SDS011;64379;48.888;8.330;2023-01-06T09:59:26;0.93;;;0.65;;
75768;SDS011;64379;48.888;8.330;2023-01-06T10:01:43;2.25;;;0.80;;
75768;SDS011;64379;48.888;8.330;2023-01-06T10:04:29;1.05;;;0.63;;
75768;SDS011;64379;48.888;8.330;2023-01-06T10:06:59;1.85;;;0.80;;
75768;SDS011;64379;48.888;8.330;2023-01-06T10:26:39;1.70;;;0.50;;
75768;SDS011;64379;48.888;8.330;2023-01-06T10:29:17;2.90;;;0.80;;
75768;SDS011;64379;48.888;8.330;2023-01-06T10:31:45;1.08;;;0.50;;
75768;SDS011;64379;48.888;8.330;2023-01-06T10:34:16;0.60;;;0.40;;
75768;SDS011;64379;48.888;8.330;2023-01-06T10:36:51;1.00;;;0.60;;
75768;SDS011;64379;48.888;8.330;2023-01-06T10:39:44;2.08;;;0.60;;
75768;SDS011;64379;48.888;8.330;2023-01-06T10:42:28;1.23;;;0.70;;
75768;SDS011;64379;48.888;8.330;2023-01-06T10:45:25;0.75;;;0.60;;
75768;SDS011;64379;48.888;8.330;2023-01-06T10:47:52;1.13;;;0.50;;
75768;SDS011;64379;48.888;8.330;2023-01-06T10:50:18;1.05;;;0.60;;
75768;SDS011;64379;48.888;8.330;2023-01-06T10:52:44;2.95;;;0.80;;
75768;SDS011;64379;48.888;8.330;2023-01-06T10:55:17;1.23;;;0.65;;
75768;SDS011;64379;48.888;8.330;2023-01-06T10:58:02;2.35;;;0.70;;
75768;SDS011;64379;48.888;8.330;2023-01-06T11:00:37;1.52;;;0.73;;
75768;SDS011;64379;48.888;8.330;2023-01-06T11:03:18;1.13;;;0.75;;
75768;SDS011;64379;48.888;8.330;2023-01-06T11:05:45;2.25;;;0.85;;
75768;SDS011;64379;48.888;8.330;2023-01-06T11:08:11;1.55;;;0.93;;
75768;SDS011;64379;48.888;8.330;2023-01-06T11:10:43;1.95;;;0.82;;
75768;SDS011;64379;48.888;8.330;2023-01-06T11:13:27;2.63;;;0.65;;
75768;SDS011;64379;48.888;8.330;2023-01-06T11:15:55;2.47;;;0.70;;
75768;SDS011;64379;48.888;8.330;2023-01-06T11:18:26;0.90;;;0.68;;
75768;SDS011;64379;48.888;8.330;2023-01-06T11:21:08;2.05;;;0.90;;
75768;SDS011;64379;48.888;8.330;2023-01-06T11:23:40;3.00;;;0.70;;
75768;SDS011;64379;48.888;8.330;2023-01-06T11:28:36;1.13;;;0.63;;
75768;SDS011;64379;48.888;8.330;2023-01-06T11:33:45;0.77;;;0.63;;
75768;SDS011;64379;48.888;8.330;2023-01-06T11:36:19;1.23;;;0.57;;
75768;SDS011;64379;48.888;8.330;2023-01-06T11:38:47;3.03;;;0.90;;
75768;SDS011;64379;48.888;8.330;2023-01-06T11:41:21;2.95;;;0.90;;
75768;SDS011;64379;48.888;8.330;2023-01-06T11:43:49;2.35;;;0.80;;
75768;SDS011;64379;48.888;8.330;2023-01-06T11:46:18;1.98;;;0.77;;
75768;SDS011;64379;48.888;8.330;2023-01-06T11:48:47;1.92;;;0.60;;
75768;SDS011;64379;48.888;8.330;2023-01-06T11:51:29;1.65;;;0.90;;
75768;SDS011;64379;48.888;8.330;2023-01-06T11:53:56;3.38;;;0.80;;
75768;SDS011;64379;48.888;8.330;2023-01-06T11:56:22;1.63;;;0.80;;
75768;SDS011;64379;48.888;8.330;2023-01-06T12:06:59;1.15;;;0.77;;
75768;SDS011;64379;48.888;8.330;2023-01-06T12:09:37;1.70;;;0.60;;
75768;SDS011;64379;48.888;8.330;2023-01-06T12:12:05;1.52;;;0.57;;
75768;SDS011;64379;48.888;8.330;2023-01-06T12:14:35;1.00;;;0.63;;
75768;SDS011;64379;48.888;8.330;2023-01-06T12:22:38;0.38;;;0.35;;
75768;SDS011;64379;48.888;8.330;2023-01-06T12:25:32;1.40;;;0.40;;
75768;SDS011;64379;48.888;8.330;2023-01-06T12:30:34;0.75;;;0.47;;
75768;SDS011;64379;48.888;8.330;2023-01-06T12:33:26;0.70;;;0.40;;
75768;SDS011;64379;48.888;8.330;2023-01-06T12:36:10;0.45;;;0.40;;
75768;SDS011;64379;48.888;8.330;2023-01-06T12:38:47;0.60;;;0.35;;
75768;SDS011;64379;48.888;8.330;2023-01-06T12:41:34;2.00;;;0.60;;
75768;SDS011;64379;48.888;8.330;2023-01-06T12:47:18;0.90;;;0.43;;
75768;SDS011;64379;48.888;8.330;2023-01-06T12:50:06;2.80;;;0.88;;
75768;SDS011;64379;48.888;8.330;2023-01-06T12:52:44;1.70;;;0.60;;
75768;SDS011;64379;48.888;8.330;2023-01-06T12:55:15;0.52;;;0.50;;
75768;SDS011;64379;48.888;8.330;2023-01-06T13:16:46;1.65;;;0.70;;
75768;SDS011;64379;48.888;8.330;2023-01-06T13:21:54;1.98;;;0.80;;
75768;SDS011;64379;48.888;8.330;2023-01-06T13:27:07;2.15;;;0.60;;
75768;SDS011;64379;48.888;8.330;2023-01-06T13:35:43;1.90;;;0.80;;
75768;SDS011;64379;48.888;8.330;2023-01-06T13:38:40;1.60;;;0.60;;
75768;SDS011;64379;48.888;8.330;2023-01-06T13:41:22;3.92;;;0.80;;
75768;SDS011;64379;48.888;8.330;2023-01-06T13:43:53;1.50;;;0.60;;
75768;SDS011;64379;48.888;8.330;2023-01-06T13:46:20;1.67;;;0.80;;
75768;SDS011;64379;48.888;8.330;2023-01-06T13:48:49;2.15;;;1.13;;
75768;SDS011;64379;48.888;8.330;2023-01-06T13:51:19;2.33;;;1.27;;
75768;SDS011;64379;48.888;8.330;2023-01-06T13:53:47;2.95;;;1.13;;
75768;SDS011;64379;48.888;8.330;2023-01-06T13:58:40;2.55;;;1.02;;
75768;SDS011;64379;48.888;8.330;2023-01-06T14:06:02;2.80;;;1.10;;
75768;SDS011;64379;48.888;8.330;2023-01-06T14:08:30;4.25;;;1.35;;
75768;SDS011;64379;48.888;8.330;2023-01-06T14:11:02;1.95;;;1.00;;
75768;SDS011;64379;48.888;8.330;2023-01-06T14:13:49;3.25;;;1.10;;
75768;SDS011;64379;48.888;8.330;2023-01-06T14:16:17;1.80;;;0.93;;
75768;SDS011;64379;48.888;8.330;2023-01-06T14:18:50;2.42;;;1.08;;
75768;SDS011;64379;48.888;8.330;2023-01-06T14:21:28;3.15;;;1.05;;
75768;SDS011;64379;48.888;8.330;2023-01-06T14:39:49;1.70;;;0.90;;
75768;SDS011;64379;48.888;8.330;2023-01-06T14:42:38;2.55;;;1.20;;
75768;SDS011;64379;48.888;8.330;2023-01-06T14:47:52;2.13;;;1.17;;
75768;SDS011;64379;48.888;8.330;2023-01-06T14:50:31;2.00;;;1.00;;
75768;SDS011;64379;48.888;8.330;2023-01-06T14:53:04;2.95;;;1.13;;
75768;SDS011;64379;48.888;8.330;2023-01-06T14:55:33;3.55;;;1.17;;
75768;SDS011;64379;48.888;8.330;2023-01-06T14:58:02;3.22;;;1.10;;
75768;SDS011;64379;48.888;8.330;2023-01-06T15:00:28;2.22;;;0.98;;
75768;SDS011;64379;48.888;8.330;2023-01-06T15:03:04;2.33;;;0.95;;
75768;SDS011;64379;48.888;8.330;2023-01-06T15:05:42;2.53;;;1.20;;
75768;SDS011;64379;48.888;8.330;2023-01-06T15:10:43;2.95;;;1.20;;
75768;SDS011;64379;48.888;8.330;2023-01-06T15:15:50;3.20;;;1.10;;
75768;SDS011;64379;48.888;8.330;2023-01-06T15:18:16;3.35;;;1.30;;
75768;SDS011;64379;48.888;8.330;2023-01-06T15:20:42;2.60;;;1.10;;
75768;SDS011;64379;48.888;8.330;2023-01-06T15:23:15;2.05;;;1.10;;
75768;SDS011;64379;48.888;8.330;2023-01-06T15:25:42;2.75;;;0.98;;
75768;SDS011;64379;48.888;8.330;2023-01-06T15:28:29;2.70;;;1.08;;
75768;SDS011;64379;48.888;8.330;2023-01-06T15:30:56;3.15;;;1.10;;
75768;SDS011;64379;48.888;8.330;2023-01-06T15:33:23;3.28;;;1.35;;
75768;SDS011;64379;48.888;8.330;2023-01-06T15:35:53;3.33;;;1.40;;
75768;SDS011;64379;48.888;8.330;2023-01-06T15:40:49;4.82;;;1.50;;
75768;SDS011;64379;48.888;8.330;2023-01-06T15:43:15;3.08;;;1.00;;
75768;SDS011;64379;48.888;8.330;2023-01-06T15:45:41;2.15;;;0.90;;
75768;SDS011;64379;48.888;8.330;2023-01-06T15:48:14;1.52;;;0.77;;
75768;SDS011;64379;48.888;8.330;2023-01-06T15:50:44;2.17;;;0.98;;
75768;SDS011;64379;48.888;8.330;2023-01-06T15:53:20;2.08;;;0.95;;
75768;SDS011;64379;48.888;8.330;2023-01-06T15:55:49;1.73;;;0.90;;
75768;SDS011;64379;48.888;8.330;2023-01-06T15:58:30;2.58;;;0.85;;
75768;SDS011;64379;48.888;8.330;2023-01-06T16:01:06;0.98;;;0.50;;
75768;SDS011;64379;48.888;8.330;2023-01-06T16:03:43;1.65;;;0.73;;
75768;SDS011;64379;48.888;8.330;2023-01-06T16:06:11;2.88;;;0.90;;
75768;SDS011;64379;48.888;8.330;2023-01-06T16:08:39;1.63;;;0.70;;
75768;SDS011;64379;48.888;8.330;2023-01-06T16:18:38;3.35;;;0.52;;
75768;SDS011;64379;48.888;8.330;2023-01-06T16:21:21;1.58;;;0.70;;
75768;SDS011;64379;48.888;8.330;2023-01-06T16:23:53;1.45;;;0.77;;
75768;SDS011;64379;48.888;8.330;2023-01-06T16:26:24;1.75;;;0.70;;
75768;SDS011;64379;48.888;8.330;2023-01-06T16:28:53;2.17;;;0.70;;
75768;SDS011;64379;48.888;8.330;2023-01-06T16:34:13;1.10;;;0.65;;
75768;SDS011;64379;48.888;8.330;2023-01-06T16:36:41;0.75;;;0.65;;
75768;SDS011;64379;48.888;8.330;2023-01-06T16:39:07;2.10;;;0.80;;
75768;SDS011;64379;48.888;8.330;2023-01-06T16:41:32;1.35;;;0.80;;
75768;SDS011;64379;48.888;8.330;2023-01-06T16:43:58;1.90;;;0.80;;
75768;SDS011;64379;48.888;8.330;2023-01-06T16:46:23;2.25;;;0.95;;
75768;SDS011;64379;48.888;8.330;2023-01-06T16:48:51;4.38;;;1.48;;
75768;SDS011;64379;48.888;8.330;2023-01-06T16:51:19;4.05;;;1.60;;
75768;SDS011;64379;48.888;8.330;2023-01-06T16:53:45;3.45;;;1.30;;
75768;SDS011;64379;48.888;8.330;2023-01-06T16:56:21;2.50;;;1.08;;
75768;SDS011;64379;48.888;8.330;2023-01-06T16:58:51;1.92;;;1.00;;
75768;SDS011;64379;48.888;8.330;2023-01-06T17:01:19;1.33;;;0.73;;
75768;SDS011;64379;48.888;8.330;2023-01-06T17:03:55;2.35;;;1.08;;
75768;SDS011;64379;48.888;8.330;2023-01-06T17:06:24;2.63;;;1.10;;
75768;SDS011;64379;48.888;8.330;2023-01-06T17:08:50;2.53;;;1.05;;
75768;SDS011;64379;48.888;8.330;2023-01-06T17:11:25;2.25;;;1.20;;
75768;SDS011;64379;48.888;8.330;2023-01-06T17:13:59;2.60;;;1.10;;
75768;SDS011;64379;48.888;8.330;2023-01-06T17:16:31;3.40;;;0.88;;
75768;SDS011;64379;48.888;8.330;2023-01-06T17:19:07;2.70;;;1.13;;
75768;SDS011;64379;48.888;8.330;2023-01-06T17:21:39;3.50;;;0.93;;
75768;SDS011;64379;48.888;8.330;2023-01-06T17:26:50;2.78;;;1.05;;
75768;SDS011;64379;48.888;8.330;2023-01-06T17:29:19;2.95;;;1.23;;
75768;SDS011;64379;48.888;8.330;2023-01-06T17:31:49;2.63;;;1.20;;
75768;SDS011;64379;48.888;8.330;2023-01-06T17:34:22;2.78;;;1.05;;
75768;SDS011;64379;48.888;8.330;2023-01-06T17:36:55;2.40;;;1.10;;
75768;SDS011;64379;48.888;8.330;2023-01-06T17:39:25;2.05;;;0.88;;
75768;SDS011;64379;48.888;8.330;2023-01-06T17:41:56;2.92;;;1.13;;
75768;SDS011;64379;48.888;8.330;2023-01-06T17:44:30;5.07;;;1.25;;
75768;SDS011;64379;48.888;8.330;2023-01-06T17:47:00;3.17;;;1.13;;